createdAt,value
2022-10-06T00:01:41.283Z,7.70
2022-10-06T00:03:44.591Z,7.80
2022-10-06T00:05:47.508Z,6.60
2022-10-06T00:07:50.507Z,7.87
2022-10-06T00:09:53.395Z,10.13
2022-10-06T00:11:56.333Z,7.87
2022-10-06T00:13:59.306Z,7.37
2022-10-06T00:16:03.092Z,6.97
2022-10-06T00:18:07.429Z,6.77
2022-10-06T00:20:10.876Z,6.70
2022-10-06T00:22:13.882Z,7.00
2022-10-06T00:24:16.880Z,7.33
2022-10-06T00:26:20.002Z,6.40
2022-10-06T00:28:23.121Z,7.00
2022-10-06T00:30:27.816Z,6.53
2022-10-06T00:32:30.824Z,6.70
2022-10-06T00:34:36.515Z,7.27
2022-10-06T00:36:39.929Z,7.60
2022-10-06T00:38:42.828Z,7.20
2022-10-06T00:40:50.090Z,6.70
2022-10-06T00:42:55.263Z,6.63
2022-10-06T00:44:59.952Z,6.87
2022-10-06T00:47:03.163Z,7.50
2022-10-06T00:49:11.906Z,6.63
2022-10-06T00:51:16.357Z,6.50
2022-10-06T00:53:19.537Z,7.30
2022-10-06T00:55:23.377Z,7.40
2022-10-06T00:57:27.282Z,6.50
2022-10-06T00:59:30.302Z,7.20
2022-10-06T01:01:33.532Z,6.50
2022-10-06T01:03:39.053Z,6.67
2022-10-06T01:05:46.588Z,6.40
2022-10-06T01:07:50.908Z,6.20
2022-10-06T01:09:53.929Z,6.50
2022-10-06T01:11:59.277Z,6.00
2022-10-06T01:14:02.194Z,6.50
2022-10-06T01:16:11.858Z,6.90
2022-10-06T01:18:17.679Z,6.13
2022-10-06T01:20:21.853Z,5.80
2022-10-06T01:22:28.528Z,6.17
2022-10-06T01:24:31.530Z,6.37
2022-10-06T01:26:36.946Z,7.23
2022-10-06T01:28:40.404Z,5.90
2022-10-06T01:30:50.815Z,5.87
2022-10-06T01:32:54.566Z,6.80
2022-10-06T01:34:57.956Z,6.57
2022-10-06T01:37:01.007Z,6.10
2022-10-06T01:39:05.640Z,6.20
2022-10-06T01:41:08.607Z,5.80
2022-10-06T01:43:11.847Z,6.33
2022-10-06T01:45:14.906Z,6.43
2022-10-06T01:47:17.825Z,6.30
2022-10-06T01:49:20.687Z,6.57
2022-10-06T01:51:24.077Z,6.10
2022-10-06T01:53:27.003Z,6.90
2022-10-06T01:55:31.276Z,6.67
2022-10-06T01:57:39.666Z,6.30
2022-10-06T01:59:43.169Z,6.73
2022-10-06T02:01:46.208Z,6.50
2022-10-06T02:03:49.877Z,6.73
2022-10-06T02:05:52.783Z,7.30
2022-10-06T02:07:55.777Z,6.03
2022-10-06T02:09:58.773Z,6.00
2022-10-06T02:12:04.339Z,6.07
2022-10-06T02:14:07.332Z,7.00
2022-10-06T02:16:11.824Z,6.03
2022-10-06T02:18:14.896Z,6.97
2022-10-06T02:20:18.028Z,6.13
2022-10-06T02:22:20.953Z,6.20
2022-10-06T02:24:25.376Z,6.23
2022-10-06T02:26:28.455Z,6.37
2022-10-06T02:28:33.823Z,7.27
2022-10-06T02:30:39.052Z,6.90
2022-10-06T02:32:44.092Z,6.60
2022-10-06T02:34:47.512Z,5.73
2022-10-06T02:36:50.468Z,6.37
2022-10-06T02:38:54.497Z,6.37
2022-10-06T02:40:58.076Z,6.10
2022-10-06T02:43:01.063Z,6.20
2022-10-06T02:45:07.221Z,6.40
2022-10-06T02:47:13.989Z,6.83
2022-10-06T02:49:16.987Z,6.20
2022-10-06T02:51:21.559Z,6.00
2022-10-06T02:53:25.910Z,5.80
2022-10-06T02:55:30.926Z,5.70
2022-10-06T02:57:33.888Z,5.93
2022-10-06T02:59:37.514Z,6.47
2022-10-06T03:01:42.770Z,6.30
2022-10-06T03:03:50.975Z,6.90
2022-10-06T03:06:00.570Z,5.93
2022-10-06T03:08:03.595Z,6.03
2022-10-06T03:10:07.526Z,6.63
2022-10-06T03:12:10.619Z,6.63
2022-10-06T03:14:21.377Z,6.23
2022-10-06T03:16:26.957Z,6.40
2022-10-06T03:18:31.907Z,6.53
2022-10-06T03:20:35.377Z,7.17
2022-10-06T03:22:39.207Z,6.43
2022-10-06T03:24:42.126Z,6.47
2022-10-06T03:26:47.004Z,7.47
2022-10-06T03:28:51.506Z,6.50
2022-10-06T03:30:54.901Z,7.30
2022-10-06T03:33:01.780Z,6.73
2022-10-06T03:35:07.250Z,7.10
2022-10-06T03:37:10.653Z,6.70
2022-10-06T03:39:13.675Z,6.93
2022-10-06T03:41:19.160Z,5.77
2022-10-06T03:43:22.246Z,6.80
2022-10-06T03:45:25.480Z,6.80
2022-10-06T03:47:30.835Z,6.63
2022-10-06T03:49:34.276Z,7.30
2022-10-06T03:51:39.964Z,6.80
2022-10-06T03:53:48.241Z,6.47
2022-10-06T03:55:53.039Z,6.00
2022-10-06T03:57:57.271Z,5.97
2022-10-06T04:00:00.579Z,6.87
2022-10-06T04:02:05.313Z,6.57
2022-10-06T04:04:12.780Z,6.33
2022-10-06T04:06:18.724Z,6.27
2022-10-06T04:08:23.267Z,6.23
2022-10-06T04:10:27.098Z,5.87
2022-10-06T04:12:30.326Z,6.30
2022-10-06T04:14:33.270Z,7.10
2022-10-06T04:16:37.672Z,6.63
2022-10-06T04:18:41.766Z,6.83
2022-10-06T04:20:44.733Z,6.60
2022-10-06T04:22:47.824Z,6.47
2022-10-06T04:24:52.128Z,6.90
2022-10-06T04:27:15.062Z,6.20
2022-10-06T04:29:19.545Z,6.23
2022-10-06T04:31:32.751Z,6.00
2022-10-06T04:33:36.034Z,6.33
2022-10-06T04:35:39.077Z,6.70
2022-10-06T04:37:42.488Z,6.00
2022-10-06T04:39:45.460Z,6.27
2022-10-06T04:41:50.179Z,6.40
2022-10-06T04:43:58.035Z,7.03
2022-10-06T04:46:18.106Z,6.30
2022-10-06T04:48:27.571Z,5.90
2022-10-06T04:50:30.876Z,5.70
2022-10-06T04:52:41.841Z,6.33
2022-10-06T04:54:45.199Z,6.57
2022-10-06T04:56:49.843Z,6.80
2022-10-06T04:58:55.801Z,6.57
2022-10-06T05:00:58.410Z,6.80
2022-10-06T05:03:01.425Z,6.23
2022-10-06T05:05:05.804Z,7.60
2022-10-06T05:07:08.827Z,7.10
2022-10-06T05:09:15.970Z,7.03
2022-10-06T05:11:30.315Z,11.60
2022-10-06T05:13:37.073Z,11.60
2022-10-06T05:15:40.663Z,10.27
2022-10-06T05:17:43.816Z,9.37
2022-10-06T05:19:46.998Z,7.87
2022-10-06T05:21:49.961Z,10.40
2022-10-06T05:23:57.422Z,8.73
2022-10-06T05:26:01.564Z,8.10
2022-10-06T05:28:05.037Z,7.97
2022-10-06T05:30:11.086Z,8.70
2022-10-06T05:32:14.230Z,9.33
2022-10-06T05:34:17.972Z,9.10
2022-10-06T05:36:24.233Z,8.80
2022-10-06T05:38:29.767Z,8.33
2022-10-06T05:40:32.995Z,7.87
2022-10-06T05:42:35.982Z,8.07
2022-10-06T05:44:38.956Z,7.80
2022-10-06T05:46:47.064Z,7.20
2022-10-06T05:48:51.714Z,7.13
2022-10-06T05:51:01.386Z,7.23
2022-10-06T05:53:04.595Z,6.93
2022-10-06T05:55:08.772Z,8.50
2022-10-06T05:57:12.502Z,7.30
2022-10-06T05:59:15.582Z,7.00
2022-10-06T06:01:20.340Z,7.47
2022-10-06T06:03:25.864Z,7.27
2022-10-06T06:05:29.000Z,6.77
2022-10-06T06:07:32.194Z,7.67
2022-10-06T06:09:35.426Z,6.53
2022-10-06T06:11:41.128Z,6.60
2022-10-06T06:13:44.125Z,6.63
2022-10-06T06:16:01.213Z,6.63
2022-10-06T06:18:06.119Z,6.47
2022-10-06T06:20:11.124Z,6.97
2022-10-06T06:22:14.463Z,7.00
2022-10-06T06:24:19.638Z,6.93
2022-10-06T06:26:24.434Z,7.50
2022-10-06T06:28:29.240Z,7.90
2022-10-06T06:30:32.562Z,8.40
2022-10-06T06:32:35.966Z,7.27
2022-10-06T06:34:39.429Z,8.00
2022-10-06T06:36:47.490Z,7.37
2022-10-06T06:38:54.668Z,7.67
2022-10-06T06:40:58.430Z,6.80
2022-10-06T06:43:01.691Z,8.03
2022-10-06T06:45:16.519Z,7.33
2022-10-06T06:47:31.972Z,8.40
2022-10-06T06:49:36.160Z,8.73
2022-10-06T06:51:49.472Z,9.67
2022-10-06T06:53:54.604Z,9.73
2022-10-06T06:55:58.040Z,10.00
2022-10-06T06:58:01.109Z,9.80
2022-10-06T07:00:08.074Z,8.60
2022-10-06T07:02:12.841Z,8.67
2022-10-06T07:04:19.650Z,7.63
2022-10-06T07:06:27.748Z,9.03
2022-10-06T07:08:33.286Z,8.80
2022-10-06T07:10:37.221Z,8.20
2022-10-06T07:12:40.738Z,7.57
2022-10-06T07:15:04.154Z,8.50
2022-10-06T07:17:29.393Z,7.50
2022-10-06T07:19:52.315Z,8.00
2022-10-06T07:22:14.825Z,8.73
2022-10-06T07:24:37.120Z,8.13
2022-10-06T07:26:40.221Z,7.50
2022-10-06T07:28:43.238Z,8.10
2022-10-06T07:30:48.159Z,7.60
2022-10-06T07:32:55.774Z,8.27
2022-10-06T07:35:00.813Z,8.17
2022-10-06T07:37:06.424Z,7.50
2022-10-06T07:39:10.517Z,7.40
2022-10-06T07:41:20.292Z,7.50
2022-10-06T07:43:30.593Z,7.23
2022-10-06T07:45:42.121Z,7.00
2022-10-06T07:47:59.006Z,7.37
2022-10-06T07:50:02.056Z,8.00
2022-10-06T07:52:05.911Z,7.50
2022-10-06T07:54:09.038Z,8.27
2022-10-06T07:56:48.490Z,7.57
2022-10-06T07:58:51.600Z,12.23
2022-10-06T08:00:54.582Z,12.27
2022-10-06T08:02:57.624Z,11.00
2022-10-06T08:05:00.668Z,8.90
2022-10-06T08:07:04.411Z,13.90
2022-10-06T08:09:07.465Z,9.70
2022-10-06T08:11:10.981Z,8.87
2022-10-06T08:13:15.651Z,9.33
2022-10-06T08:15:18.633Z,8.20
2022-10-06T08:17:21.625Z,9.07
2022-10-06T08:19:25.346Z,8.33
2022-10-06T08:21:29.946Z,8.10
2022-10-06T08:23:32.961Z,8.47
2022-10-06T08:25:42.615Z,8.33
2022-10-06T08:27:48.964Z,8.73
2022-10-06T08:29:56.069Z,9.17
2022-10-06T08:31:59.423Z,8.10
2022-10-06T08:34:02.553Z,8.07
2022-10-06T08:36:08.541Z,9.43
2022-10-06T08:38:12.403Z,8.10
2022-10-06T08:40:16.192Z,7.47
2022-10-06T08:42:24.856Z,8.20
2022-10-06T08:44:31.562Z,8.80
2022-10-06T08:46:38.834Z,8.50
2022-10-06T08:48:41.886Z,8.23
2022-10-06T08:50:53.424Z,7.37
2022-10-06T08:53:04.200Z,7.10
2022-10-06T08:55:15.741Z,6.90
2022-10-06T08:57:20.943Z,6.60
2022-10-06T08:59:23.992Z,7.03
2022-10-06T09:01:28.665Z,5.50
2022-10-06T09:03:33.123Z,4.93
2022-10-06T09:05:37.148Z,4.53
2022-10-06T09:07:45.889Z,4.80
2022-10-06T09:09:59.939Z,5.10
2022-10-06T09:12:07.757Z,4.03
2022-10-06T09:14:15.107Z,4.53
2022-10-06T09:16:19.416Z,4.40
2022-10-06T09:18:29.138Z,4.40
2022-10-06T09:20:42.619Z,4.20
2022-10-06T09:22:45.846Z,3.40
2022-10-06T09:24:50.680Z,3.87
2022-10-06T09:26:54.429Z,3.13
2022-10-06T09:28:57.850Z,3.67
2022-10-06T09:31:02.632Z,3.40
2022-10-06T09:33:07.216Z,3.17
2022-10-06T09:35:18.208Z,2.70
2022-10-06T09:37:23.231Z,3.17
2022-10-06T09:39:29.124Z,2.13
2022-10-06T09:41:38.557Z,2.57
2022-10-06T09:43:42.678Z,2.80
2022-10-06T09:45:45.715Z,2.67
2022-10-06T09:47:48.712Z,2.40
2022-10-06T09:50:04.409Z,2.87
2022-10-06T09:52:12.809Z,2.03
2022-10-06T09:54:18.161Z,6.67
2022-10-06T09:56:21.973Z,2.60
2022-10-06T09:58:32.633Z,2.77
2022-10-06T10:00:47.698Z,2.60
2022-10-06T10:02:57.671Z,4.10
2022-10-06T10:05:02.364Z,3.27
2022-10-06T10:07:15.324Z,3.43
2022-10-06T10:09:37.593Z,3.27
2022-10-06T10:11:58.438Z,2.80
2022-10-06T10:14:01.437Z,3.67
2022-10-06T10:16:04.643Z,3.53
2022-10-06T10:18:13.894Z,2.87
2022-10-06T10:20:29.373Z,2.93
2022-10-06T10:22:36.339Z,3.00
2022-10-06T10:24:52.653Z,3.30
2022-10-06T10:26:57.859Z,3.47
2022-10-06T10:29:35.294Z,2.80
2022-10-06T10:31:48.145Z,2.80
2022-10-06T10:34:11.859Z,2.40
2022-10-06T10:36:17.755Z,2.63
2022-10-06T10:38:21.667Z,2.30
2022-10-06T10:40:37.421Z,2.10
2022-10-06T10:42:45.795Z,2.30
2022-10-06T10:44:52.187Z,2.63
2022-10-06T10:46:58.299Z,2.40
2022-10-06T10:49:05.256Z,2.03
2022-10-06T10:51:12.063Z,2.07
2022-10-06T10:53:19.425Z,2.10
2022-10-06T10:55:28.045Z,2.20
2022-10-06T10:57:36.986Z,2.43
2022-10-06T10:59:46.238Z,1.70
2022-10-06T11:01:53.679Z,2.40
2022-10-06T11:04:00.860Z,2.20
2022-10-06T11:06:23.761Z,2.23
2022-10-06T11:08:31.309Z,2.10
2022-10-06T11:10:37.752Z,2.73
2022-10-06T11:12:54.274Z,2.57
2022-10-06T11:14:59.551Z,1.80
2022-10-06T11:17:07.065Z,2.37
2022-10-06T11:19:16.822Z,2.43
2022-10-06T11:21:23.046Z,2.67
2022-10-06T11:23:36.598Z,2.30
2022-10-06T11:25:45.339Z,2.40
2022-10-06T11:27:58.245Z,2.57
2022-10-06T11:30:05.961Z,2.70
2022-10-06T11:32:22.242Z,2.40
2022-10-06T11:34:25.244Z,2.80
2022-10-06T11:36:36.026Z,2.83
2022-10-06T11:38:41.774Z,3.13
2022-10-06T11:41:05.105Z,2.30
2022-10-06T11:43:20.641Z,2.60
2022-10-06T11:45:27.895Z,2.00
2022-10-06T11:47:35.596Z,2.10
2022-10-06T11:49:57.189Z,2.67
2022-10-06T11:52:37.149Z,2.13
2022-10-06T11:54:48.270Z,1.80
2022-10-06T11:56:51.206Z,2.03
2022-10-06T11:59:31.261Z,1.87
2022-10-06T12:02:03.066Z,1.90
2022-10-06T12:04:24.288Z,2.00
2022-10-06T12:06:58.654Z,2.30
2022-10-06T12:09:01.929Z,3.03
2022-10-06T12:11:25.336Z,2.03
2022-10-06T12:14:49.489Z,2.40
2022-10-06T12:18:57.178Z,1.67
2022-10-06T12:21:08.200Z,1.90
2022-10-06T12:23:17.879Z,1.90
2022-10-06T12:25:26.744Z,2.30
2022-10-06T12:27:36.570Z,7.83
2022-10-06T12:29:45.999Z,2.60
2022-10-06T12:31:59.421Z,4.03
2022-10-06T12:34:02.483Z,7.20
2022-10-06T12:36:07.196Z,5.43
2022-10-06T12:38:43.080Z,2.50
2022-10-06T12:40:52.299Z,1.40
2022-10-06T12:43:11.472Z,3.00
2022-10-06T12:45:17.242Z,2.50
2022-10-06T12:47:24.130Z,7.90
2022-10-06T12:49:40.943Z,2.93
2022-10-06T12:51:45.893Z,2.00
2022-10-06T12:53:54.548Z,1.53
2022-10-06T12:56:02.011Z,1.47
2022-10-06T12:58:05.072Z,2.37
2022-10-06T13:00:23.513Z,1.70
2022-10-06T13:02:28.859Z,8.47
2022-10-06T13:04:37.582Z,4.00
2022-10-06T13:06:40.565Z,3.60
2022-10-06T13:08:43.712Z,3.17
2022-10-06T13:10:46.779Z,3.10
2022-10-06T13:12:52.051Z,1.80
2022-10-06T13:15:18.365Z,1.87
2022-10-06T13:17:21.397Z,1.73
2022-10-06T13:19:28.847Z,1.60
2022-10-06T13:21:32.050Z,1.37
2022-10-06T13:23:36.129Z,1.57
2022-10-06T13:25:43.441Z,1.90
2022-10-06T13:27:50.397Z,1.70
2022-10-06T13:30:12.841Z,2.07
2022-10-06T13:32:19.045Z,1.67
2022-10-06T13:34:28.490Z,1.87
2022-10-06T13:36:33.205Z,1.87
2022-10-06T13:38:36.873Z,1.80
2022-10-06T13:40:44.695Z,1.50
2022-10-06T13:42:48.680Z,1.90
2022-10-06T13:44:56.734Z,1.50
2022-10-06T13:47:01.881Z,1.83
2022-10-06T13:49:12.691Z,1.67
2022-10-06T13:51:19.165Z,1.70
2022-10-06T13:53:25.539Z,2.00
2022-10-06T13:55:29.638Z,1.50
2022-10-06T13:57:34.949Z,1.53
2022-10-06T13:59:39.307Z,1.70
2022-10-06T14:01:42.564Z,2.73
2022-10-06T14:03:45.606Z,1.80
2022-10-06T14:05:48.681Z,1.77
2022-10-06T14:07:53.776Z,1.67
2022-10-06T14:09:56.797Z,1.77
2022-10-06T14:12:04.569Z,1.60
2022-10-06T14:14:08.368Z,2.07
2022-10-06T14:16:19.982Z,2.10
2022-10-06T14:18:25.239Z,1.73
2022-10-06T14:20:48.783Z,1.80
2022-10-06T14:22:53.504Z,2.20
2022-10-06T14:24:56.464Z,1.50
2022-10-06T14:27:02.272Z,1.50
2022-10-06T14:29:06.421Z,1.90
2022-10-06T14:31:14.273Z,1.43
2022-10-06T14:33:17.923Z,1.93
2022-10-06T14:35:21.070Z,1.50
2022-10-06T14:37:24.008Z,1.67
2022-10-06T14:39:28.514Z,1.63
2022-10-06T14:41:32.679Z,1.70
2022-10-06T14:43:35.716Z,1.63
2022-10-06T14:45:41.702Z,1.50
2022-10-06T14:47:45.047Z,1.70
2022-10-06T14:49:48.578Z,1.50
2022-10-06T14:51:55.677Z,1.90
2022-10-06T14:53:59.728Z,1.80
2022-10-06T14:56:07.810Z,5.80
2022-10-06T14:58:10.948Z,12.20
2022-10-06T15:00:14.785Z,19.27
2022-10-06T15:02:20.294Z,11.20
2022-10-06T15:04:26.494Z,3.17
2022-10-06T15:06:47.078Z,6.60
2022-10-06T15:08:51.690Z,2.60
2022-10-06T15:10:54.942Z,8.80
2022-10-06T15:12:59.763Z,3.37
2022-10-06T15:15:04.366Z,6.00
2022-10-06T15:17:07.439Z,5.30
2022-10-06T15:19:10.978Z,9.37
2022-10-06T15:21:13.969Z,14.17
2022-10-06T15:23:17.302Z,6.10
2022-10-06T15:25:34.174Z,9.23
2022-10-06T15:27:54.867Z,2.87
2022-10-06T15:29:59.275Z,3.97
2022-10-06T15:32:03.348Z,3.53
2022-10-06T15:34:08.064Z,3.50
2022-10-06T15:36:18.738Z,4.23
2022-10-06T15:38:21.738Z,2.20
2022-10-06T15:40:24.813Z,2.27
2022-10-06T15:42:27.821Z,1.50
2022-10-06T15:44:34.510Z,1.80
2022-10-06T15:46:40.633Z,2.53
2022-10-06T15:48:44.391Z,2.07
2022-10-06T15:50:47.347Z,2.10
2022-10-06T15:52:50.670Z,2.03
2022-10-06T15:54:53.634Z,2.10
2022-10-06T15:56:57.629Z,1.97
2022-10-06T15:59:00.957Z,2.25
2022-10-06T16:01:03.969Z,2.40
2022-10-06T16:03:24.751Z,2.10
2022-10-06T16:05:47.713Z,2.20
2022-10-06T16:07:50.674Z,2.23
2022-10-06T16:09:53.885Z,2.00
2022-10-06T16:11:57.914Z,1.87
2022-10-06T16:14:00.870Z,2.17
2022-10-06T16:16:03.969Z,2.13
2022-10-06T16:18:08.374Z,2.27
2022-10-06T16:20:11.523Z,2.00
2022-10-06T16:22:16.595Z,1.87
2022-10-06T16:24:20.163Z,2.20
2022-10-06T16:26:24.313Z,2.20
2022-10-06T16:28:27.283Z,2.80
2022-10-06T16:30:30.338Z,2.50
2022-10-06T16:32:33.322Z,2.50
2022-10-06T16:34:37.643Z,2.13
2022-10-06T16:36:41.399Z,2.40
2022-10-06T16:38:44.625Z,2.03
2022-10-06T16:40:54.916Z,2.27
2022-10-06T16:42:57.917Z,2.33
2022-10-06T16:45:00.944Z,3.20
2022-10-06T16:47:04.030Z,3.70
2022-10-06T16:49:08.563Z,4.60
2022-10-06T16:51:14.328Z,4.77
2022-10-06T16:53:18.502Z,20.30
2022-10-06T16:55:21.565Z,9.20
2022-10-06T16:57:24.851Z,7.57
2022-10-06T16:59:28.814Z,5.53
2022-10-06T17:01:34.388Z,14.90
2022-10-06T17:03:37.842Z,8.90
2022-10-06T17:05:40.868Z,7.20
2022-10-06T17:07:45.205Z,13.40
2022-10-06T17:10:15.336Z,8.07
2022-10-06T17:12:11.143Z,8.90
2022-10-06T17:14:14.715Z,11.90
2022-10-06T17:16:19.186Z,42.87
2022-10-06T17:18:22.290Z,15.67
2022-10-06T17:20:25.569Z,15.60
2022-10-06T17:22:28.651Z,21.63
2022-10-06T17:24:32.907Z,25.83
2022-10-06T17:26:37.175Z,13.83
2022-10-06T17:28:41.952Z,13.73
2022-10-06T17:30:52.579Z,12.60
2022-10-06T17:32:55.511Z,28.80
2022-10-06T17:34:58.548Z,40.30
2022-10-06T17:37:02.739Z,19.47
2022-10-06T17:39:06.716Z,21.73
2022-10-06T17:41:16.885Z,16.07
2022-10-06T17:43:20.389Z,9.00
2022-10-06T17:45:23.697Z,7.07
2022-10-06T17:47:27.880Z,7.20
2022-10-06T17:49:34.580Z,7.47
2022-10-06T17:51:40.505Z,8.20
2022-10-06T17:53:44.382Z,9.20
2022-10-06T17:55:47.626Z,10.80
2022-10-06T17:57:52.012Z,9.30
2022-10-06T17:59:58.943Z,8.10
2022-10-06T18:02:03.691Z,6.90
2022-10-06T18:04:07.951Z,7.47
2022-10-06T18:06:12.556Z,7.83
2022-10-06T18:08:16.997Z,6.87
2022-10-06T18:10:37.624Z,6.60
2022-10-06T18:12:40.835Z,5.87
2022-10-06T18:14:45.895Z,5.90
2022-10-06T18:16:55.906Z,7.10
2022-10-06T18:19:01.486Z,6.43
2022-10-06T18:21:05.082Z,8.93
2022-10-06T18:23:09.522Z,19.00
2022-10-06T18:25:16.710Z,8.57
2022-10-06T18:27:20.170Z,6.83
2022-10-06T18:29:24.847Z,5.60
2022-10-06T18:31:29.403Z,5.43
2022-10-06T18:36:14.700Z,6.00
2022-10-06T18:38:18.511Z,6.20
2022-10-06T18:40:21.644Z,4.87
2022-10-06T18:42:25.565Z,5.17
2022-10-06T18:44:42.463Z,4.80
2022-10-06T18:47:03.565Z,4.80
2022-10-06T18:49:10.485Z,5.27
2022-10-06T18:51:13.473Z,4.57
2022-10-06T18:53:16.491Z,4.77
2022-10-06T18:55:19.483Z,4.70
2022-10-06T18:57:27.181Z,5.60
2022-10-06T18:59:31.259Z,13.80
2022-10-06T19:01:34.450Z,13.07
2022-10-06T19:03:38.839Z,9.70
2022-10-06T19:05:52.048Z,7.10
2022-10-06T19:07:55.726Z,7.57
2022-10-06T19:09:59.083Z,7.20
2022-10-06T19:12:02.072Z,6.73
2022-10-06T19:14:05.144Z,7.77
2022-10-06T19:16:08.160Z,7.73
2022-10-06T19:18:11.255Z,8.70
2022-10-06T19:20:15.670Z,8.70
2022-10-06T19:22:21.540Z,7.90
2022-10-06T19:24:24.565Z,7.47
2022-10-06T19:26:27.549Z,7.50
2022-10-06T19:28:32.155Z,7.57
2022-10-06T19:30:35.267Z,7.80
2022-10-06T19:32:38.296Z,7.87
2022-10-06T19:34:41.279Z,7.37
2022-10-06T19:36:50.820Z,7.30
2022-10-06T19:38:55.468Z,6.60
2022-10-06T19:41:18.965Z,6.40
2022-10-06T19:43:21.767Z,8.37
2022-10-06T19:45:24.771Z,8.20
2022-10-06T19:47:28.050Z,7.00
2022-10-06T19:49:31.126Z,6.23
2022-10-06T19:51:35.165Z,6.47
2022-10-06T19:53:39.500Z,6.47
2022-10-06T19:55:43.521Z,6.17
2022-10-06T19:57:46.965Z,6.03
2022-10-06T19:59:51.242Z,7.00
2022-10-06T20:01:54.963Z,6.23
2022-10-06T20:03:58.363Z,6.50
2022-10-06T20:06:03.506Z,6.40
2022-10-06T20:08:06.509Z,6.10
2022-10-06T20:10:11.753Z,6.23
2022-10-06T20:12:15.048Z,6.80
2022-10-06T20:14:20.940Z,7.07
2022-10-06T20:16:24.439Z,8.20
2022-10-06T20:18:27.499Z,9.70
2022-10-06T20:20:30.464Z,12.00
2022-10-06T20:22:33.473Z,8.30
2022-10-06T20:24:36.517Z,8.10
2022-10-06T20:26:43.133Z,7.53
2022-10-06T20:28:46.810Z,7.43
2022-10-06T20:30:51.600Z,7.00
2022-10-06T20:32:54.618Z,7.10
2022-10-06T20:34:57.987Z,6.60
2022-10-06T20:37:02.514Z,7.00
2022-10-06T20:39:23.392Z,7.33
2022-10-06T20:41:27.182Z,6.40
2022-10-06T20:43:31.527Z,7.70
2022-10-06T20:45:34.540Z,6.40
2022-10-06T20:47:37.482Z,6.60
2022-10-06T20:49:42.033Z,6.53
2022-10-06T20:51:49.812Z,5.60
2022-10-06T20:53:53.664Z,5.87
2022-10-06T20:55:56.613Z,5.67
2022-10-06T20:57:59.561Z,6.23
2022-10-06T21:00:04.038Z,6.80
2022-10-06T21:02:08.069Z,6.73
2022-10-06T21:04:11.446Z,6.20
2022-10-06T21:06:14.987Z,5.53
2022-10-06T21:08:18.381Z,6.33
2022-10-06T21:10:22.905Z,6.13
2022-10-06T21:12:26.008Z,5.90
2022-10-06T21:14:29.968Z,6.00
2022-10-06T21:16:35.557Z,6.10
2022-10-06T21:18:38.481Z,5.90
2022-10-06T21:20:45.226Z,5.03
2022-10-06T21:22:48.420Z,5.47
2022-10-06T21:24:51.524Z,5.60
2022-10-06T21:26:54.438Z,5.53
2022-10-06T21:28:57.772Z,5.13
2022-10-06T21:31:02.815Z,4.83
2022-10-06T21:33:07.145Z,5.70
2022-10-06T21:35:10.463Z,5.60
2022-10-06T21:37:13.810Z,4.67
2022-10-06T21:39:16.998Z,4.53
2022-10-06T21:41:31.785Z,5.63
2022-10-06T21:43:34.751Z,5.33
2022-10-06T21:45:40.253Z,5.10
2022-10-06T21:47:43.315Z,5.77
2022-10-06T21:49:47.763Z,6.43
2022-10-06T21:51:51.838Z,7.93
2022-10-06T21:53:55.985Z,8.53
2022-10-06T21:55:58.881Z,7.90
2022-10-06T21:58:01.815Z,9.10
2022-10-06T22:00:06.000Z,7.97
2022-10-06T22:02:15.870Z,7.97
2022-10-06T22:04:19.449Z,8.53
2022-10-06T22:06:23.841Z,7.63
2022-10-06T22:08:26.768Z,7.90
2022-10-06T22:10:29.688Z,7.33
2022-10-06T22:12:32.607Z,7.50
2022-10-06T22:14:35.511Z,6.90
2022-10-06T22:16:38.766Z,6.43
2022-10-06T22:18:42.491Z,7.40
2022-10-06T22:20:45.428Z,6.63
2022-10-06T22:22:51.941Z,6.80
2022-10-06T22:24:54.883Z,6.77
2022-10-06T22:26:58.772Z,5.70
2022-10-06T22:29:01.963Z,6.37
2022-10-06T22:31:06.324Z,5.10
2022-10-06T22:33:09.247Z,5.60
2022-10-06T22:35:12.103Z,5.67
2022-10-06T22:37:15.210Z,6.00
2022-10-06T22:39:19.576Z,5.33
2022-10-06T22:41:22.918Z,6.30
2022-10-06T22:43:25.949Z,5.10
2022-10-06T22:45:28.812Z,5.30
2022-10-06T22:47:31.719Z,5.37
2022-10-06T22:49:35.255Z,5.00
2022-10-06T22:51:38.339Z,5.37
2022-10-06T22:53:41.265Z,5.10
2022-10-06T22:55:45.676Z,5.80
2022-10-06T22:57:48.623Z,5.50
2022-10-06T22:59:51.728Z,4.70
2022-10-06T23:01:54.689Z,5.40
2022-10-06T23:03:57.736Z,5.27
2022-10-06T23:06:01.662Z,5.07
2022-10-06T23:08:05.150Z,5.30
2022-10-06T23:10:08.929Z,4.80
2022-10-06T23:12:13.289Z,5.13
2022-10-06T23:14:16.294Z,5.40
2022-10-06T23:16:20.570Z,4.57
2022-10-06T23:18:23.545Z,5.03
2022-10-06T23:20:26.545Z,5.07
2022-10-06T23:22:29.535Z,5.07
2022-10-06T23:24:32.585Z,4.80
2022-10-06T23:26:35.532Z,4.80
2022-10-06T23:28:40.591Z,4.60
2022-10-06T23:30:43.601Z,5.23
2022-10-06T23:32:46.523Z,4.77
2022-10-06T23:34:49.436Z,5.40
2022-10-06T23:36:52.322Z,5.00
2022-10-06T23:38:55.733Z,4.90
2022-10-06T23:40:58.769Z,4.53
2022-10-06T23:43:01.622Z,4.40
2022-10-06T23:45:07.649Z,4.30
2022-10-06T23:47:10.549Z,4.80
2022-10-06T23:49:13.396Z,4.83
2022-10-06T23:51:16.645Z,4.27
2022-10-06T23:53:19.566Z,4.77
2022-10-06T23:55:22.496Z,4.70
2022-10-06T23:57:25.464Z,4.60
2022-10-06T23:59:29.422Z,4.60
